Sky Friends

Карта отелей и гостиниц, располагающихся рядом с аэропортом Sky Friends :

Sky Friends
Улан-Батор
47° 46' 21.0684" N, 107° 26' 19.7484" E
Sky Friends
Улан-Батор
47° 46' 21.0684" N, 107° 26' 19.7484" E
Код аэродрома ИКАО
ZMSF
Код аэродрома RU
ЗМСФ
Координаты
N47.77252° E107.43882°
Превышение над уровнем моря
1465
Основная полоса
12/30
Курс магнитный
117,8/297,8
Длина основной ВПП
810
Ширина основной ВПП
15
Покрытие основной ВПП
Нетвёрдое (гравий)
Освещение ВПП
Нет
Тип: 
Аэродром
Класс аэродрома: 
Принадлежность: 
АОН
Статус: 
Действующий
Сайт: 
http://www.thomasair.mn/main/?lid=426&f=skyfriends
E-mail аэродрома: 
info@thomasair.mn
Страна: 
Регион: 
Город: 
Улан-Батор
Дополнительная информация: 
Монголия. Горный. Оператор: нет данных.

Найти трансфер

С помощью этой формы Вы можете найти трансфер из аэропорта Sky Friends в город, аэропорт или вокзал:

Карта места

Javascript is required to view this map.

Погода в аэропортах:

Авиационная погода в Минеральные Воды

Регион: 
Погода METAR: 
URMM 281200Z 00000MPS 9999 -SHRA BKN023CB 11/09 Q1020 R12/290250 NOSIG RMK QFE737/0982
Время наблюдения
2021-09-28T12:00:00Z
Температура C
11.0
Точка росы
9.0
Направление ветра
0
Скорость ветра (узлы)
0
Метео видимость
6.21
Явления погоды
-SHRA
Условия полета
MVFR
Аэропорт подробнее: 

Авиационная погода в Костанае

Регион: 
Погода METAR: 
UAUU 281200Z 04009G15MPS 9999 -RA BKN011 OVC033 04/03 Q1011 R33/290160 NOSIG RMK QFE742/0990
Время наблюдения
2021-09-28T12:00:00Z
Температура C
4.0
Точка росы
3.0
Направление ветра
40
Скорость ветра (узлы)
17
Метео видимость
6.21
Явления погоды
-RA
Условия полета
MVFR
Аэропорт подробнее: 

Авиационная погода в Магнитогорске

Погода METAR: 
USCM 281200Z 03010MPS 4500 -SHRA BR OVC010CB 02/02 Q1016 R36/290055 TEMPO 02015MPS 1200 SHSNRA BR VV004 RMK QFE724
Время наблюдения
2021-09-28T12:00:00Z
Температура C
2.0
Точка росы
2.0
Направление ветра
30
Скорость ветра (узлы)
19
Метео видимость
2.8
Явления погоды
-SHRA BR
Условия полета
IFR
Аэропорт подробнее: 

Авиационная погода в Йоэнсуу

Регион: 
Погода METAR: 
EFJO 281150Z AUTO 15006KT 130V200 0900 0650 R28/1400U BCFG OVC001 06/06 Q1034
Время наблюдения
2021-09-28T11:50:00Z
Температура C
6.0
Точка росы
6.0
Направление ветра
150
Скорость ветра (узлы)
6
Метео видимость
0.56
Явления погоды
BCFG
Условия полета
LIFR